Time;durP1;ratioP1;P1;durP2;ratioP2;P2;SDS_P1;SDS_P2;PMS_P1;PMS_P2;Temp;Humidity;BMP_temperature;BMP_pressure;BME280_temperature;BME280_humidity;BME280_pressure;Samples;Min_cycle;Max_cycle;Signal;HPM_P1;HPM_P2
2024/02/05 00:02:08;;;;;;;15.27;8.50;;;11.80;99.90;;;;;;10403299;28;20201;-61
2024/02/05 00:07:13;;;;;;;10.48;7.93;;;11.80;99.90;;;;;;10402710;28;20259;-62
2024/02/05 00:12:17;;;;;;;18.15;9.02;;;11.80;99.90;;;;;;10409166;28;20204;-61
2024/02/05 00:17:22;;;;;;;13.32;8.70;;;11.80;99.90;;;;;;10412760;28;20390;-62
2024/02/05 00:22:26;;;;;;;15.73;9.73;;;11.80;99.90;;;;;;10418937;28;20223;-59
2024/02/05 00:27:30;;;;;;;21.15;9.75;;;11.70;99.90;;;;;;10410929;28;20216;-61
2024/02/05 00:32:37;;;;;;;22.50;11.32;;;11.70;99.90;;;;;;10404605;28;20223;-62
2024/02/05 00:37:41;;;;;;;19.30;11.63;;;11.70;99.90;;;;;;10401358;28;20285;-61
2024/02/05 00:42:45;;;;;;;17.52;11.55;;;11.60;99.90;;;;;;10399930;28;20209;-62
2024/02/05 00:47:50;;;;;;;18.02;11.02;;;11.60;99.90;;;;;;10401800;28;20702;-61
2024/02/05 00:52:53;;;;;;;19.02;11.27;;;11.60;99.90;;;;;;10398942;28;20204;-62
2024/02/05 00:57:57;;;;;;;23.15;11.57;;;11.60;99.90;;;;;;10412096;28;20314;-62
2024/02/05 01:03:03;;;;;;;19.25;10.82;;;11.60;99.90;;;;;;10405823;28;20254;-62
2024/02/05 01:08:07;;;;;;;17.67;10.85;;;11.60;99.90;;;;;;10405131;28;20240;-64
2024/02/05 01:13:11;;;;;;;18.88;10.25;;;11.60;99.90;;;;;;10405732;28;20700;-61
2024/02/05 01:18:16;;;;;;;19.67;9.93;;;11.60;99.90;;;;;;10406128;28;20264;-62
2024/02/05 01:23:20;;;;;;;20.40;9.27;;;11.60;99.90;;;;;;10406078;28;20724;-66
2024/02/05 01:28:23;;;;;;;17.52;8.95;;;11.60;99.90;;;;;;10403631;28;20224;-61
2024/02/05 01:33:28;;;;;;;21.13;8.98;;;11.60;99.90;;;;;;10404575;28;20200;-62
2024/02/05 01:38:32;;;;;;;18.63;8.50;;;11.60;99.90;;;;;;10411235;28;20683;-62
2024/02/05 01:43:36;;;;;;;19.75;8.70;;;11.70;99.90;;;;;;10406579;28;20200;-64
2024/02/05 01:48:43;;;;;;;19.42;8.10;;;11.70;99.90;;;;;;10406516;28;20228;-62
2024/02/05 01:53:46;;;;;;;23.98;7.95;;;11.70;99.90;;;;;;10400266;28;20742;-64
2024/02/05 01:58:50;;;;;;;20.15;7.70;;;11.70;99.90;;;;;;10409365;28;20309;-60
2024/02/05 02:03:56;;;;;;;18.30;7.88;;;11.70;99.90;;;;;;10406482;28;20672;-62
2024/02/05 02:09:01;;;;;;;20.35;7.18;;;11.70;99.90;;;;;;10402450;28;20278;-63
2024/02/05 02:14:04;;;;;;;16.90;6.97;;;11.70;99.90;;;;;;10403901;28;20235;-63
2024/02/05 02:19:31;;;;;;;17.58;7.15;;;11.70;99.90;;;;;;10407274;28;20736;-63
2024/02/05 02:24:36;;;;;;;18.63;6.30;;;11.70;99.90;;;;;;10400069;28;20219;-62
2024/02/05 02:29:40;;;;;;;12.80;6.22;;;11.70;99.90;;;;;;10405515;28;20274;-63
2024/02/05 02:34:48;;;;;;;19.23;7.03;;;11.70;99.90;;;;;;10406909;28;20224;-63
2024/02/05 02:39:58;;;;;;;18.73;7.05;;;11.70;99.90;;;;;;10405009;28;20216;-62
2024/02/05 02:45:02;;;;;;;20.67;6.63;;;11.70;99.90;;;;;;10404075;28;20259;-59
2024/02/05 02:50:07;;;;;;;20.83;6.78;;;11.70;99.90;;;;;;10410971;28;20204;-61
2024/02/05 02:55:12;;;;;;;19.55;6.70;;;11.70;99.90;;;;;;10406249;28;20224;-63
2024/02/05 03:00:17;;;;;;;19.40;7.55;;;11.60;99.90;;;;;;10401192;28;20278;-62
2024/02/05 03:05:21;;;;;;;21.83;7.25;;;11.60;99.90;;;;;;10393044;28;20695;-65
2024/02/05 03:10:26;;;;;;;22.58;7.57;;;11.60;99.90;;;;;;10394101;28;20227;-65
2024/02/05 03:15:30;;;;;;;22.67;8.10;;;11.60;99.90;;;;;;10401321;28;20270;-64
2024/02/05 03:20:35;;;;;;;21.60;8.07;;;11.60;99.90;;;;;;10403434;28;20259;-64
2024/02/05 03:25:40;;;;;;;24.08;8.40;;;11.60;99.90;;;;;;10399620;28;20251;-65
2024/02/05 03:30:44;;;;;;;20.55;8.38;;;11.60;99.90;;;;;;10399520;28;20282;-64
2024/02/05 03:35:48;;;;;;;26.65;8.20;;;11.60;99.90;;;;;;10400324;28;20224;-64
2024/02/05 03:40:53;;;;;;;23.65;8.52;;;11.60;99.90;;;;;;10406995;28;20275;-64
2024/02/05 03:45:56;;;;;;;18.77;8.35;;;11.60;99.90;;;;;;10401773;28;20216;-63
2024/02/05 03:51:00;;;;;;;22.67;8.93;;;11.60;99.90;;;;;;10405872;28;20366;-65
2024/02/05 03:56:06;;;;;;;25.65;9.63;;;11.50;99.90;;;;;;10408401;28;20232;-64
2024/02/05 04:01:09;;;;;;;23.90;8.88;;;11.50;99.90;;;;;;10403650;28;20252;-64
2024/02/05 04:06:13;;;;;;;20.15;9.32;;;11.50;99.90;;;;;;10396213;28;20282;-64
2024/02/05 04:11:18;;;;;;;25.25;9.18;;;11.50;99.90;;;;;;10413926;28;20686;-65
2024/02/05 04:16:22;;;;;;;21.88;8.82;;;11.50;99.90;;;;;;10413290;28;20255;-64
2024/02/05 04:21:26;;;;;;;20.88;8.98;;;11.50;99.90;;;;;;10411457;28;20224;-65
2024/02/05 04:26:31;;;;;;;21.52;8.30;;;11.50;99.90;;;;;;10409264;28;20632;-64
2024/02/05 04:31:35;;;;;;;23.38;8.55;;;11.50;99.90;;;;;;10408425;28;20193;-61
2024/02/05 04:36:38;;;;;;;26.30;9.43;;;11.50;99.90;;;;;;10407995;28;20227;-64
2024/02/05 04:41:44;;;;;;;23.88;9.63;;;11.50;99.90;;;;;;10407896;28;20705;-65
2024/02/05 04:46:47;;;;;;;24.63;9.10;;;11.50;99.90;;;;;;10405184;28;20279;-65
2024/02/05 04:51:51;;;;;;;26.88;9.40;;;11.50;99.90;;;;;;10401606;28;20675;-66
2024/02/05 04:56:56;;;;;;;24.50;8.30;;;11.50;99.90;;;;;;10404193;28;20286;-65
2024/02/05 05:01:59;;;;;;;30.52;9.10;;;11.50;99.90;;;;;;10410239;28;20704;-62
2024/02/05 05:07:04;;;;;;;22.48;9.55;;;11.50;99.90;;;;;;10405362;28;20685;-65
2024/02/05 05:12:09;;;;;;;20.35;9.80;;;11.40;99.90;;;;;;10407704;28;20196;-64
2024/02/05 05:17:13;;;;;;;26.05;9.60;;;11.40;99.90;;;;;;10408526;28;20358;-64
2024/02/05 05:22:19;;;;;;;28.00;10.27;;;11.40;99.90;;;;;;10407610;28;20256;-64
2024/02/05 05:27:24;;;;;;;20.23;9.05;;;11.40;99.90;;;;;;10415926;28;20246;-64
2024/02/05 05:32:28;;;;;;;22.63;9.15;;;11.40;99.90;;;;;;10411236;28;20196;-65
2024/02/05 05:37:31;;;;;;;19.83;8.55;;;11.40;99.90;;;;;;10414223;28;20220;-65
2024/02/05 05:42:37;;;;;;;26.08;8.98;;;11.40;99.90;;;;;;10420919;28;20227;-64
2024/02/05 05:47:42;;;;;;;23.38;9.38;;;11.40;99.90;;;;;;10413728;28;20232;-65
2024/02/05 05:52:46;;;;;;;21.70;9.77;;;11.40;99.90;;;;;;10407247;28;20822;-64
2024/02/05 05:57:51;;;;;;;19.13;9.43;;;11.40;99.90;;;;;;10408851;28;20699;-64
2024/02/05 06:02:56;;;;;;;24.77;9.05;;;11.40;99.90;;;;;;10417795;28;20213;-65
2024/02/05 06:08:00;;;;;;;21.58;9.02;;;11.30;99.90;;;;;;10410481;28;20228;-64
2024/02/05 06:13:05;;;;;;;30.48;9.77;;;11.30;99.90;;;;;;10410683;28;20261;-63
2024/02/05 06:18:09;;;;;;;20.23;8.40;;;11.30;99.90;;;;;;10408292;28;20220;-63
2024/02/05 06:23:12;;;;;;;24.25;8.32;;;11.30;99.90;;;;;;10409354;28;20650;-65
2024/02/05 06:28:17;;;;;;;22.38;8.68;;;11.30;99.90;;;;;;10405457;28;20212;-64
2024/02/05 06:33:21;;;;;;;19.45;9.07;;;11.30;99.90;;;;;;10406361;28;20630;-65
2024/02/05 06:38:25;;;;;;;19.85;9.10;;;11.30;99.90;;;;;;10398652;28;20243;-64
2024/02/05 06:43:32;;;;;;;28.27;9.05;;;11.30;99.90;;;;;;10407522;28;20204;-63
2024/02/05 06:48:36;;;;;;;25.05;9.13;;;11.30;99.90;;;;;;10414165;28;20584;-64
2024/02/05 06:53:40;;;;;;;21.05;7.72;;;11.20;99.90;;;;;;10410593;28;20286;-65
2024/02/05 06:58:45;;;;;;;25.97;7.73;;;11.20;99.90;;;;;;10400827;28;20259;-62
2024/02/05 07:03:48;;;;;;;23.35;8.48;;;11.30;99.90;;;;;;10407575;28;20447;-65
2024/02/05 07:08:52;;;;;;;17.27;6.53;;;11.40;99.90;;;;;;10411499;28;20290;-65
2024/02/05 07:13:57;;;;;;;18.40;6.95;;;11.40;99.90;;;;;;10397343;28;20197;-65
2024/02/05 07:19:01;;;;;;;18.60;6.95;;;11.40;99.90;;;;;;10394729;28;21653;-62
2024/02/05 07:24:05;;;;;;;19.00;6.72;;;11.40;99.90;;;;;;10394267;28;20205;-63
2024/02/05 07:29:10;;;;;;;26.50;6.20;;;11.30;99.90;;;;;;10383655;28;20266;-63
2024/02/05 07:34:14;;;;;;;22.40;5.83;;;11.30;99.90;;;;;;10395197;28;20204;-65
2024/02/05 07:39:18;;;;;;;24.02;6.43;;;11.30;99.90;;;;;;10378919;28;20280;-65
2024/02/05 07:44:23;;;;;;;21.25;7.07;;;11.30;99.90;;;;;;10388660;28;20254;-64
2024/02/05 07:49:27;;;;;;;20.40;6.55;;;11.30;99.90;;;;;;10413047;28;20193;-65
2024/02/05 07:54:31;;;;;;;21.52;6.45;;;11.20;99.90;;;;;;10408008;28;20668;-65
2024/02/05 07:59:36;;;;;;;22.85;6.57;;;11.20;99.90;;;;;;10404993;28;20212;-65
2024/02/05 08:04:40;;;;;;;27.17;7.15;;;11.20;99.90;;;;;;10409359;28;21700;-64
2024/02/05 08:09:44;;;;;;;22.88;6.18;;;11.20;99.90;;;;;;10399444;28;20226;-64
2024/02/05 08:14:49;;;;;;;19.05;5.80;;;11.20;99.90;;;;;;10389965;28;20626;-64
2024/02/05 08:19:53;;;;;;;22.27;6.20;;;11.20;99.90;;;;;;10402391;28;20209;-64
2024/02/05 08:24:57;;;;;;;22.63;6.88;;;11.20;99.90;;;;;;10398724;28;20217;-64
2024/02/05 08:30:02;;;;;;;18.05;5.53;;;11.20;99.90;;;;;;10396714;28;20196;-62
2024/02/05 08:35:06;;;;;;;20.67;5.90;;;11.20;99.90;;;;;;10400709;28;20224;-64
2024/02/05 08:40:11;;;;;;;23.05;6.03;;;11.20;99.90;;;;;;10399444;28;20231;-63
2024/02/05 08:45:18;;;;;;;17.50;5.63;;;11.20;99.90;;;;;;10404567;28;20224;-65
2024/02/05 08:50:25;;;;;;;23.48;5.85;;;11.20;99.90;;;;;;10408766;28;20204;-64
2024/02/05 08:55:29;;;;;;;16.92;5.15;;;11.30;99.90;;;;;;10403662;28;20263;-64
2024/02/05 09:00:34;;;;;;;21.00;5.90;;;11.30;99.90;;;;;;10401998;28;20213;-64
2024/02/05 09:05:38;;;;;;;17.20;5.35;;;11.30;99.90;;;;;;10551758;22;20267;-64
2024/02/05 09:10:49;;;;;;;18.40;5.38;;;11.30;99.90;;;;;;10405241;28;20670;-64
2024/02/05 09:15:54;;;;;;;18.60;5.65;;;11.30;99.90;;;;;;10407753;28;20251;-65
2024/02/05 09:20:57;;;;;;;17.73;5.00;;;11.30;99.90;;;;;;10401628;28;20270;-64
2024/02/05 09:26:01;;;;;;;16.70;5.18;;;11.30;99.90;;;;;;10401229;28;20631;-64
2024/02/05 09:31:06;;;;;;;23.33;6.35;;;11.30;99.90;;;;;;10409287;28;20713;-64
2024/02/05 09:36:15;;;;;;;25.48;5.78;;;11.40;99.90;;;;;;10407629;28;20282;-65
2024/02/05 09:41:23;;;;;;;23.75;6.60;;;11.40;99.70;;;;;;10403244;28;20282;-63
2024/02/05 09:46:30;;;;;;;18.67;5.80;;;11.40;99.70;;;;;;10405650;28;20200;-64
2024/02/05 09:51:37;;;;;;;23.77;6.20;;;11.50;99.80;;;;;;10388032;28;20349;-64
2024/02/05 09:56:41;;;;;;;20.33;6.28;;;11.50;99.50;;;;;;10405687;28;20223;-64
2024/02/05 10:01:47;;;;;;;25.73;5.90;;;11.50;99.40;;;;;;10401384;28;20702;-64
2024/02/05 10:06:52;;;;;;;18.50;6.00;;;11.60;99.40;;;;;;10403040;28;20193;-64
2024/02/05 10:11:57;;;;;;;24.23;5.63;;;11.60;99.50;;;;;;10392749;28;20243;-65
2024/02/05 10:17:02;;;;;;;18.75;5.68;;;11.60;98.80;;;;;;10406227;28;20278;-65
2024/02/05 10:22:09;;;;;;;15.65;5.32;;;11.60;99.00;;;;;;10400093;28;20280;-64
2024/02/05 10:27:16;;;;;;;19.42;5.40;;;11.70;98.60;;;;;;10400756;28;20204;-65
2024/02/05 10:32:24;;;;;;;24.67;5.88;;;11.70;98.20;;;;;;10397045;28;20216;-65
2024/02/05 10:37:28;;;;;;;17.27;6.15;;;11.70;98.40;;;;;;10396975;28;20204;-64
2024/02/05 10:42:33;;;;;;;16.60;5.80;;;11.70;98.30;;;;;;10403987;28;20270;-65
2024/02/05 10:47:38;;;;;;;20.27;6.63;;;11.70;98.20;;;;;;10397681;28;20212;-65
2024/02/05 10:52:42;;;;;;;19.15;7.32;;;11.70;97.50;;;;;;10404305;28;20216;-65
2024/02/05 10:57:47;;;;;;;17.70;6.05;;;11.70;97.70;;;;;;10403315;28;20200;-65
2024/02/05 11:02:56;;;;;;;23.60;6.15;;;11.70;97.40;;;;;;10389937;28;20306;-65
2024/02/05 11:08:09;;;;;;;22.77;6.47;;;11.70;97.20;;;;;;10402188;28;20196;-64
2024/02/05 11:13:20;;;;;;;19.00;6.68;;;11.70;97.20;;;;;;10384762;28;20225;-64
2024/02/05 11:18:28;;;;;;;19.45;6.75;;;11.80;97.40;;;;;;10400873;28;20732;-64
2024/02/05 11:23:34;;;;;;;19.42;7.05;;;11.80;97.20;;;;;;10408607;28;20232;-64
2024/02/05 11:28:37;;;;;;;21.02;6.88;;;11.80;96.50;;;;;;10399319;28;20266;-63
2024/02/05 11:33:42;;;;;;;21.63;6.85;;;11.80;96.50;;;;;;10413747;28;20589;-63
2024/02/05 11:38:47;;;;;;;24.02;8.30;;;11.80;96.90;;;;;;10404799;28;20258;-64
2024/02/05 11:43:50;;;;;;;17.45;8.00;;;11.90;96.70;;;;;;10396911;28;20781;-65
2024/02/05 11:48:56;;;;;;;17.15;7.60;;;11.90;97.20;;;;;;10403753;28;20196;-66
2024/02/05 11:54:00;;;;;;;22.88;7.20;;;11.90;96.90;;;;;;10408670;28;20748;-66
2024/02/05 11:59:08;;;;;;;20.58;7.78;;;11.90;97.00;;;;;;10410219;28;20282;-66
2024/02/05 12:04:13;;;;;;;25.15;7.72;;;11.90;96.20;;;;;;10403303;28;20282;-70
2024/02/05 12:09:18;;;;;;;23.13;7.53;;;11.90;96.60;;;;;;10405620;28;20224;-64
2024/02/05 12:14:21;;;;;;;15.02;7.15;;;12.00;96.80;;;;;;10403330;28;20274;-66
2024/02/05 12:19:26;;;;;;;17.00;7.05;;;12.00;96.50;;;;;;10411520;28;20215;-64
2024/02/05 12:24:32;;;;;;;15.32;6.32;;;12.00;95.90;;;;;;10410201;28;20228;-66
2024/02/05 12:29:37;;;;;;;13.73;5.57;;;12.10;95.90;;;;;;10405774;28;20205;-70
2024/02/05 12:34:45;;;;;;;16.55;5.28;;;12.10;95.70;;;;;;10401634;28;20251;-67
2024/02/05 12:39:51;;;;;;;15.88;5.75;;;12.20;95.40;;;;;;10400450;28;20212;-66
2024/02/05 12:44:55;;;;;;;18.75;5.13;;;12.30;95.30;;;;;;10399123;28;20297;-65
2024/02/05 12:50:16;;;;;;;14.35;4.47;;;12.20;95.00;;;;;;10406992;28;20222;-66
2024/02/05 12:55:20;;;;;;;14.90;4.88;;;12.30;95.60;;;;;;10402423;28;20223;-65
2024/02/05 13:00:24;;;;;;;16.90;4.97;;;12.50;94.40;;;;;;10398563;28;21632;-65
2024/02/05 13:05:29;;;;;;;17.63;4.72;;;12.50;95.10;;;;;;10400691;28;20260;-65
2024/02/05 13:10:32;;;;;;;16.48;5.32;;;12.40;94.40;;;;;;10400911;28;20192;-65
2024/02/05 13:15:36;;;;;;;12.27;3.97;;;12.40;94.30;;;;;;10401962;28;20220;-66
2024/02/05 13:20:43;;;;;;;11.90;4.60;;;12.40;94.50;;;;;;10402261;28;20226;-65
2024/02/05 13:25:48;;;;;;;14.38;4.80;;;12.40;94.30;;;;;;10409613;28;20251;-65
2024/02/05 13:30:52;;;;;;;16.77;4.40;;;12.40;94.20;;;;;;10409164;28;20325;-64
2024/02/05 13:35:57;;;;;;;14.20;4.25;;;12.50;94.20;;;;;;10399477;28;20223;-64
2024/02/05 13:41:01;;;;;;;13.80;4.72;;;12.70;94.00;;;;;;10404236;28;20200;-65
2024/02/05 13:46:04;;;;;;;15.95;4.78;;;12.60;93.40;;;;;;10409568;28;20224;-65
2024/02/05 13:51:09;;;;;;;11.50;4.78;;;12.60;93.70;;;;;;10404601;28;20201;-64
2024/02/05 13:56:13;;;;;;;15.95;5.80;;;12.50;93.80;;;;;;10400556;28;20225;-67
2024/02/05 14:01:17;;;;;;;13.82;4.88;;;12.50;93.40;;;;;;10407225;28;20246;-65
2024/02/05 14:06:22;;;;;;;15.02;5.70;;;12.50;93.00;;;;;;10401843;28;20232;-63
2024/02/05 14:11:26;;;;;;;12.93;5.55;;;12.50;93.60;;;;;;10397741;28;20752;-65
2024/02/05 14:16:29;;;;;;;15.95;4.80;;;12.60;93.60;;;;;;10399517;28;20966;-63
2024/02/05 14:21:34;;;;;;;15.23;4.75;;;12.60;93.20;;;;;;10404756;28;20216;-64
2024/02/05 14:26:42;;;;;;;22.83;6.05;;;12.60;92.80;;;;;;10380090;28;20259;-63
2024/02/05 14:31:45;;;;;;;11.75;4.70;;;12.50;92.70;;;;;;10390587;28;20196;-63
2024/02/05 14:36:50;;;;;;;12.25;4.72;;;12.40;92.60;;;;;;10402338;28;20255;-62
2024/02/05 14:41:54;;;;;;;16.17;4.82;;;12.30;92.60;;;;;;10405007;28;20296;-61
2024/02/05 14:46:57;;;;;;;14.57;5.35;;;12.30;92.90;;;;;;10369532;28;20205;-62
2024/02/05 14:52:02;;;;;;;13.10;5.43;;;12.20;92.90;;;;;;10380447;28;20209;-62
2024/02/05 14:57:06;;;;;;;17.20;4.80;;;12.10;92.30;;;;;;10389256;28;20286;-64
2024/02/05 15:02:09;;;;;;;9.82;4.95;;;12.00;92.50;;;;;;10391374;28;20707;-65
2024/02/05 15:07:15;;;;;;;14.00;5.00;;;11.90;92.40;;;;;;10399679;28;20208;-66
2024/02/05 15:12:18;;;;;;;15.68;5.18;;;11.90;92.70;;;;;;10398466;28;20217;-67
2024/02/05 15:17:22;;;;;;;13.98;5.82;;;11.80;92.60;;;;;;10395713;28;20587;-66
2024/02/05 15:22:27;;;;;;;14.63;6.45;;;11.80;92.50;;;;;;10397321;28;20255;-67
2024/02/05 15:27:31;;;;;;;16.58;7.20;;;11.70;92.40;;;;;;10395148;28;20204;-66
2024/02/05 15:32:34;;;;;;;14.38;7.63;;;11.60;92.60;;;;;;10394064;28;20216;-66
2024/02/05 15:37:39;;;;;;;17.73;7.35;;;11.50;92.20;;;;;;10396466;28;20236;-66
2024/02/05 15:42:43;;;;;;;13.63;6.90;;;11.50;92.40;;;;;;10387280;28;20258;-66
2024/02/05 15:47:47;;;;;;;13.00;7.15;;;11.40;92.90;;;;;;10395123;28;20200;-66
2024/02/05 15:52:52;;;;;;;16.38;7.85;;;11.40;92.70;;;;;;10401200;28;20212;-65
2024/02/05 15:57:55;;;;;;;13.95;7.25;;;11.30;92.70;;;;;;10402310;28;20623;-66
2024/02/05 16:02:59;;;;;;;17.75;7.43;;;11.30;92.60;;;;;;10396826;28;20228;-66
2024/02/05 16:08:04;;;;;;;18.23;6.47;;;11.30;92.70;;;;;;10406277;28;20216;-66
2024/02/05 16:13:08;;;;;;;15.60;6.55;;;11.20;92.60;;;;;;10407696;28;20213;-67
2024/02/05 16:18:11;;;;;;;15.68;7.55;;;11.20;92.40;;;;;;10407149;28;20231;-66
2024/02/05 16:23:16;;;;;;;16.27;6.57;;;11.10;92.30;;;;;;10405749;28;20753;-66
2024/02/05 16:28:20;;;;;;;17.92;5.90;;;11.00;92.20;;;;;;10409266;28;20213;-66
2024/02/05 16:33:23;;;;;;;14.52;6.50;;;11.00;92.50;;;;;;10395508;28;20225;-67
2024/02/05 16:38:29;;;;;;;14.20;6.60;;;11.00;92.90;;;;;;10405086;28;20445;-65
2024/02/05 16:43:32;;;;;;;14.15;6.40;;;11.00;93.10;;;;;;10405594;28;20255;-64
2024/02/05 16:48:37;;;;;;;13.47;5.80;;;11.00;92.80;;;;;;10406332;28;20262;-63
2024/02/05 16:53:42;;;;;;;13.98;5.47;;;11.00;92.40;;;;;;10407677;28;20224;-64
2024/02/05 16:58:46;;;;;;;13.73;5.32;;;10.90;92.50;;;;;;10400593;28;20251;-65
2024/02/05 17:03:50;;;;;;;16.35;5.07;;;10.90;92.80;;;;;;10406309;28;20297;-63
2024/02/05 17:08:55;;;;;;;15.00;5.60;;;10.90;93.10;;;;;;10403826;28;20733;-64
2024/02/05 17:13:58;;;;;;;13.02;5.93;;;10.90;92.90;;;;;;10404592;28;20303;-65
2024/02/05 17:19:02;;;;;;;18.00;6.40;;;10.80;92.80;;;;;;10405780;28;20204;-65
2024/02/05 17:24:08;;;;;;;16.50;6.03;;;10.80;92.40;;;;;;10403882;28;20221;-64
2024/02/05 17:29:11;;;;;;;12.68;5.55;;;10.80;92.40;;;;;;10392609;28;20240;-64
2024/02/05 17:34:15;;;;;;;14.57;5.75;;;10.80;92.60;;;;;;10394211;28;20217;-65
2024/02/05 17:39:21;;;;;;;16.52;5.80;;;10.80;92.70;;;;;;10400616;28;20631;-64
2024/02/05 17:44:24;;;;;;;16.15;5.60;;;10.70;92.40;;;;;;10394804;28;20283;-65
2024/02/05 17:49:28;;;;;;;13.55;5.40;;;10.70;92.70;;;;;;10396749;28;20228;-65
2024/02/05 17:54:35;;;;;;;19.63;6.45;;;10.70;92.40;;;;;;10393316;28;20637;-64
2024/02/05 17:59:38;;;;;;;16.30;6.45;;;10.70;92.50;;;;;;10389234;28;20209;-64
2024/02/05 18:04:42;;;;;;;12.95;5.97;;;10.60;92.30;;;;;;10394040;28;20271;-64
2024/02/05 18:09:47;;;;;;;18.43;6.93;;;10.60;92.30;;;;;;10393335;28;20250;-64
2024/02/05 18:14:51;;;;;;;15.48;6.40;;;10.60;92.60;;;;;;10397093;28;20243;-63
2024/02/05 18:19:54;;;;;;;16.57;6.43;;;10.60;92.40;;;;;;10399759;28;20205;-64
2024/02/05 18:24:59;;;;;;;20.02;6.47;;;10.60;92.20;;;;;;10398729;28;20310;-65
2024/02/05 18:30:05;;;;;;;13.53;5.40;;;10.50;92.10;;;;;;10393912;28;20196;-63
2024/02/05 18:35:11;;;;;;;14.48;5.82;;;10.50;92.00;;;;;;10400409;28;20212;-64
2024/02/05 18:40:17;;;;;;;12.40;5.85;;;10.50;92.20;;;;;;10391559;28;20205;-65
2024/02/05 18:45:22;;;;;;;13.93;5.43;;;10.50;91.80;;;;;;10385567;28;20229;-64
2024/02/05 18:50:27;;;;;;;13.15;6.53;;;10.50;91.80;;;;;;10397225;28;20266;-64
2024/02/05 18:55:33;;;;;;;16.95;7.82;;;10.50;91.90;;;;;;10390999;28;20251;-64
2024/02/05 19:00:37;;;;;;;16.55;6.53;;;10.50;91.80;;;;;;10393682;28;20664;-64
2024/02/05 19:05:40;;;;;;;22.08;7.45;;;10.40;91.80;;;;;;10394444;28;20758;-63
2024/02/05 19:10:46;;;;;;;14.98;7.15;;;10.40;92.00;;;;;;10394411;28;20255;-63
2024/02/05 19:15:50;;;;;;;18.77;6.93;;;10.40;91.80;;;;;;10394665;28;20294;-62
2024/02/05 19:20:54;;;;;;;22.02;7.60;;;10.40;92.00;;;;;;10395619;28;20248;-63
2024/02/05 19:25:59;;;;;;;19.77;8.20;;;10.40;92.00;;;;;;10396143;28;20748;-63
2024/02/05 19:31:03;;;;;;;14.38;7.10;;;10.40;92.30;;;;;;10393186;28;20196;-63
2024/02/05 19:36:07;;;;;;;16.77;7.55;;;10.40;92.00;;;;;;10398253;28;20225;-65
2024/02/05 19:41:15;;;;;;;16.20;7.72;;;10.40;92.10;;;;;;10401285;28;20212;-63
2024/02/05 19:46:19;;;;;;;16.42;7.68;;;10.40;92.20;;;;;;10400227;28;20281;-64
2024/02/05 19:51:23;;;;;;;16.17;7.70;;;10.40;92.10;;;;;;10405280;28;20631;-64
2024/02/05 19:56:28;;;;;;;22.27;8.00;;;10.30;92.00;;;;;;10400709;28;20221;-63
2024/02/05 20:01:32;;;;;;;18.60;7.27;;;10.30;92.10;;;;;;10402407;28;20212;-63
2024/02/05 20:06:36;;;;;;;18.27;8.23;;;10.30;92.20;;;;;;10406116;28;20305;-64
2024/02/05 20:11:45;;;;;;;16.30;8.20;;;10.30;92.20;;;;;;10401515;28;20656;-65
2024/02/05 20:16:49;;;;;;;17.67;8.20;;;10.30;92.10;;;;;;10408705;28;20734;-64
2024/02/05 20:21:52;;;;;;;14.87;7.73;;;10.30;92.20;;;;;;10404892;28;20730;-64
2024/02/05 20:26:57;;;;;;;16.80;7.70;;;10.20;92.30;;;;;;10402398;28;20302;-64
2024/02/05 20:32:01;;;;;;;13.68;7.55;;;10.20;92.50;;;;;;10402087;28;20224;-62
2024/02/05 20:37:04;;;;;;;15.73;7.40;;;10.20;92.60;;;;;;10391631;28;20196;-63
2024/02/05 20:42:12;;;;;;;17.17;8.07;;;10.20;92.80;;;;;;10401862;28;20569;-64
2024/02/05 20:47:16;;;;;;;18.17;8.67;;;10.20;93.40;;;;;;10403201;28;20220;-64
2024/02/05 20:52:19;;;;;;;14.70;7.90;;;10.20;93.30;;;;;;10399866;28;20220;-62
2024/02/05 20:57:24;;;;;;;18.33;8.67;;;10.20;93.50;;;;;;10397010;28;20572;-62
2024/02/05 21:02:29;;;;;;;16.20;7.70;;;10.20;93.80;;;;;;10396319;28;20895;-64
2024/02/05 21:07:32;;;;;;;14.90;8.47;;;10.10;93.90;;;;;;10398694;28;20220;-63
2024/02/05 21:12:38;;;;;;;14.67;7.73;;;10.10;94.20;;;;;;10405847;28;20225;-63
2024/02/05 21:17:42;;;;;;;18.63;8.23;;;10.10;94.30;;;;;;10393750;28;20200;-65
2024/02/05 21:22:45;;;;;;;15.37;8.00;;;10.00;94.40;;;;;;10391023;28;20252;-63
2024/02/05 21:27:50;;;;;;;14.73;7.10;;;10.00;94.60;;;;;;10403093;28;20255;-64
2024/02/05 21:32:54;;;;;;;11.67;6.80;;;10.00;94.70;;;;;;10399566;28;20561;-64
2024/02/05 21:37:57;;;;;;;15.90;7.20;;;10.00;95.20;;;;;;10395100;28;20197;-63
2024/02/05 21:43:03;;;;;;;12.40;6.47;;;10.00;95.70;;;;;;10401676;28;20296;-63
2024/02/05 21:48:09;;;;;;;10.30;6.07;;;9.90;95.80;;;;;;10400487;28;20216;-65
2024/02/05 21:53:14;;;;;;;14.10;6.90;;;9.90;95.90;;;;;;10391722;28;20259;-64
2024/02/05 21:58:19;;;;;;;13.20;6.63;;;9.90;96.30;;;;;;10397321;28;20200;-62
2024/02/05 22:03:22;;;;;;;11.07;6.33;;;9.90;96.30;;;;;;10389854;28;20768;-64
2024/02/05 22:08:26;;;;;;;12.80;6.27;;;9.80;96.80;;;;;;10387882;28;20252;-63
2024/02/05 22:13:31;;;;;;;10.73;6.20;;;9.80;97.10;;;;;;10402771;28;21570;-65
2024/02/05 22:18:34;;;;;;;11.40;6.03;;;9.80;97.30;;;;;;10398224;28;20228;-64
2024/02/05 22:23:39;;;;;;;14.03;6.53;;;9.70;97.70;;;;;;10393363;28;20251;-60
2024/02/05 22:28:43;;;;;;;10.57;6.70;;;9.70;97.50;;;;;;10395145;28;20954;-60
2024/02/05 22:33:48;;;;;;;12.33;7.07;;;9.70;98.00;;;;;;10401083;28;20628;-63
2024/02/05 22:38:51;;;;;;;16.77;7.73;;;9.70;98.30;;;;;;10393122;28;20192;-66
2024/02/05 22:43:57;;;;;;;13.10;6.70;;;9.60;98.40;;;;;;10395994;28;20225;-64
2024/02/05 22:49:00;;;;;;;13.53;6.57;;;9.60;98.90;;;;;;10399252;28;20248;-63
2024/02/05 22:54:05;;;;;;;12.43;7.17;;;9.60;98.80;;;;;;10399319;28;20285;-65
2024/02/05 22:59:10;;;;;;;14.23;7.70;;;9.60;98.80;;;;;;10387565;28;20204;-64
2024/02/05 23:04:14;;;;;;;11.67;8.20;;;9.60;99.70;;;;;;10391355;28;20236;-68
2024/02/05 23:09:17;;;;;;;13.40;8.00;;;9.60;99.40;;;;;;10395118;28;20252;-65
2024/02/05 23:14:24;;;;;;;13.07;8.43;;;9.60;99.30;;;;;;10400168;28;20220;-64
2024/02/05 23:19:27;;;;;;;10.40;6.63;;;9.60;99.60;;;;;;10399500;28;20805;-65
2024/02/05 23:24:31;;;;;;;12.53;6.77;;;9.60;99.30;;;;;;10402194;28;20248;-64
2024/02/05 23:29:38;;;;;;;9.47;6.17;;;9.60;99.20;;;;;;10401489;28;20268;-65
2024/02/05 23:34:42;;;;;;;10.30;6.10;;;9.70;99.60;;;;;;10401926;28;20856;-64
2024/02/05 23:39:46;;;;;;;9.37;5.93;;;9.70;99.20;;;;;;10402551;28;20563;-63
2024/02/05 23:44:51;;;;;;;10.77;5.60;;;9.70;99.10;;;;;;10404643;28;20286;-63
2024/02/05 23:49:55;;;;;;;9.20;5.90;;;9.80;99.40;;;;;;10404673;28;20772;-63
2024/02/05 23:54:59;;;;;;;10.00;5.13;;;9.80;98.90;;;;;;10410811;28;20220;-64
